Dallas, Texas
Traffic Map
Current Weather Conditions
Dallas, Texas
Overcast
Overcast
16°
Feels Like: 16°
Wind Chill: 16° Ceiling: 17000
Heat Index: 16° Visibility: 10mi
Dew Point: 11° Wind: 6mph
Humidity: 72% Direction: 150° (SSE)
Pressure: 29.88in Gusts: 0mph
Raw Report DataKDAL 270053Z 15005KT 10SM FEW035 BKN170 OVC250 16/11 A2988 RMK AO2 SLP116 T01610111
Traffic Incident Summary
Active as of:
Severity:
Category:
InformationThere was an issue retrieving the traffic information for this location. Please try a different location or try again shortly.
Advertisements
Track Severe Weather on mobile